Time;durP1;ratioP1;P1;durP2;ratioP2;P2;SDS_P1;SDS_P2;PMS_P1;PMS_P2;Temp;Humidity;BMP_temperature;BMP_pressure;BME280_temperature;BME280_humidity;BME280_pressure;Samples;Min_cycle;Max_cycle;Signal;HPM_P1;HPM_P2
2022/06/10 00:00:05;;;;;;;1.65;1.55;;;19.80;99.90;;;;;;5137010;27;20058;-65
2022/06/10 00:02:32;;;;;;;1.60;1.50;;;19.80;99.90;;;;;;5136896;27;20500;-66
2022/06/10 00:04:59;;;;;;;2.30;2.08;;;19.90;99.90;;;;;;5136655;27;20023;-65
2022/06/10 00:07:27;;;;;;;1.75;1.65;;;19.90;99.90;;;;;;5136915;27;20434;-66
2022/06/10 00:09:53;;;;;;;2.10;2.00;;;19.90;99.90;;;;;;5136789;27;20441;-65
2022/06/10 00:12:19;;;;;;;2.72;2.10;;;20.00;99.90;;;;;;5136734;27;20020;-67
2022/06/10 00:14:44;;;;;;;2.67;2.00;;;19.90;99.90;;;;;;5136716;27;20026;-66
2022/06/10 00:17:10;;;;;;;2.25;2.05;;;20.00;99.90;;;;;;5136761;27;20057;-66
2022/06/10 00:19:36;;;;;;;3.75;2.33;;;20.00;99.90;;;;;;5118312;27;20033;-65
2022/06/10 00:22:01;;;;;;;2.70;2.50;;;19.90;99.90;;;;;;5137087;27;20367;-67
2022/06/10 00:24:27;;;;;;;2.47;2.20;;;19.80;99.90;;;;;;5136934;27;20023;-66
2022/06/10 00:26:53;;;;;;;2.60;2.40;;;19.80;99.90;;;;;;5136596;27;20473;-65
2022/06/10 00:29:19;;;;;;;3.10;2.90;;;19.90;99.90;;;;;;5136348;27;20030;-66
2022/06/10 00:31:44;;;;;;;2.40;2.20;;;20.00;99.90;;;;;;5136500;27;20072;-68
2022/06/10 00:34:10;;;;;;;2.60;2.40;;;20.00;99.90;;;;;;5136311;27;20019;-65
2022/06/10 00:36:36;;;;;;;2.25;2.05;;;20.00;99.90;;;;;;5136232;27;20054;-65
2022/06/10 00:39:02;;;;;;;3.53;3.22;;;20.10;99.90;;;;;;5136215;27;20019;-67
2022/06/10 00:41:28;;;;;;;2.83;2.60;;;20.00;99.90;;;;;;5136323;27;20098;-65
2022/06/10 00:43:54;;;;;;;3.55;3.25;;;20.00;99.90;;;;;;5117729;27;20050;-67
2022/06/10 00:46:28;;;;;;;4.30;3.20;;;20.00;99.90;;;;;;5136364;27;20076;-66
2022/06/10 00:49:06;;;;;;;3.28;2.97;;;20.00;99.90;;;;;;5136137;27;20023;-66
2022/06/10 00:51:37;;;;;;;3.50;3.10;;;19.90;99.90;;;;;;5136143;27;20072;-66
2022/06/10 00:54:14;;;;;;;3.70;3.28;;;20.00;99.90;;;;;;5136023;27;20026;-67
2022/06/10 00:56:44;;;;;;;5.05;4.55;;;20.00;99.90;;;;;;5135950;27;20043;-66
2022/06/10 00:59:20;;;;;;;3.35;3.10;;;20.00;99.90;;;;;;5135900;27;20031;-66
2022/06/10 01:01:47;;;;;;;3.88;3.50;;;19.90;99.90;;;;;;5135755;27;20023;-66
2022/06/10 01:04:13;;;;;;;4.15;2.72;;;20.00;99.90;;;;;;5135003;27;20050;-67
2022/06/10 01:06:39;;;;;;;3.63;3.33;;;20.00;99.90;;;;;;5135753;27;20382;-66
2022/06/10 01:09:05;;;;;;;4.38;3.97;;;20.00;99.90;;;;;;5135531;27;20024;-65
2022/06/10 01:11:33;;;;;;;5.45;4.78;;;20.10;99.90;;;;;;5135779;27;20023;-65
2022/06/10 01:14:11;;;;;;;6.75;5.70;;;20.10;99.90;;;;;;5135578;27;20025;-66
2022/06/10 01:17:03;;;;;;;6.30;5.70;;;20.10;99.90;;;;;;5135384;27;20488;-66
2022/06/10 01:19:47;;;;;;;6.32;5.60;;;20.00;99.90;;;;;;5135514;27;20027;-65
2022/06/10 01:22:37;;;;;;;6.30;5.63;;;19.90;99.90;;;;;;5135406;27;20393;-66
2022/06/10 01:25:40;;;;;;;4.55;4.15;;;19.80;99.90;;;;;;5135291;27;20019;-66
2022/06/10 01:28:25;;;;;;;4.72;4.32;;;19.80;99.90;;;;;;5135427;27;20074;-65
2022/06/10 01:31:16;;;;;;;4.75;4.25;;;19.90;99.90;;;;;;5093182;27;20039;-66
2022/06/10 01:34:13;;;;;;;3.90;3.60;;;20.00;99.90;;;;;;5135047;27;20048;-65
2022/06/10 01:36:55;;;;;;;4.38;3.90;;;20.00;99.90;;;;;;5135006;27;20072;-67
2022/06/10 01:39:32;;;;;;;4.93;4.47;;;20.10;99.90;;;;;;5135020;27;20045;-65
2022/06/10 01:42:17;;;;;;;3.75;3.45;;;20.00;99.90;;;;;;5134969;27;20114;-66
2022/06/10 01:45:04;;;;;;;6.03;4.90;;;20.00;99.90;;;;;;5135015;27;20015;-66
2022/06/10 01:47:42;;;;;;;11.38;8.80;;;20.00;99.90;;;;;;5134892;27;20489;-65
2022/06/10 01:50:18;;;;;;;7.95;6.70;;;19.90;99.90;;;;;;5134711;27;20034;-66
2022/06/10 01:52:51;;;;;;;7.78;6.88;;;19.90;99.90;;;;;;5134951;27;20378;-66
2022/06/10 01:55:45;;;;;;;5.65;5.15;;;19.90;99.90;;;;;;5134815;27;20418;-66
2022/06/10 01:58:36;;;;;;;4.35;3.95;;;19.90;99.90;;;;;;5134247;27;20039;-67
2022/06/10 02:01:08;;;;;;;4.00;3.70;;;20.00;99.90;;;;;;5134559;27;20114;-65
2022/06/10 02:03:42;;;;;;;4.70;4.35;;;20.00;99.90;;;;;;5134677;27;20043;-66
2022/06/10 02:06:11;;;;;;;4.22;3.80;;;20.10;99.90;;;;;;5134546;27;20019;-66
2022/06/10 02:08:55;;;;;;;3.88;3.58;;;20.10;99.90;;;;;;5134496;27;20019;-65
2022/06/10 02:11:25;;;;;;;4.28;3.95;;;20.10;99.90;;;;;;5116082;27;20025;-66
2022/06/10 02:13:53;;;;;;;4.70;4.30;;;20.10;99.90;;;;;;5134819;27;20027;-66
2022/06/10 02:16:23;;;;;;;5.13;4.03;;;20.10;99.90;;;;;;5133501;27;20019;-67
2022/06/10 02:19:13;;;;;;;4.90;4.47;;;20.10;99.90;;;;;;5134498;27;20019;-67
2022/06/10 02:21:48;;;;;;;4.80;4.40;;;20.20;99.90;;;;;;5119967;27;20027;-65
2022/06/10 02:24:42;;;;;;;5.20;4.80;;;20.20;99.90;;;;;;5134409;27;20068;-66
2022/06/10 02:27:17;;;;;;;5.47;4.97;;;20.20;99.90;;;;;;5126497;27;20504;-65
2022/06/10 02:30:07;;;;;;;5.95;5.45;;;20.10;99.90;;;;;;5134168;27;20481;-67
2022/06/10 02:32:35;;;;;;;4.60;4.20;;;20.20;99.90;;;;;;5115843;28;20027;-65
2022/06/10 02:35:01;;;;;;;4.32;4.03;;;20.10;99.90;;;;;;5134320;28;20029;-66
2022/06/10 02:37:39;;;;;;;7.70;7.00;;;20.20;99.90;;;;;;5134318;28;20102;-65
2022/06/10 02:40:30;;;;;;;5.47;4.97;;;20.20;99.90;;;;;;5134219;28;20114;-67
2022/06/10 02:43:11;;;;;;;5.05;4.68;;;20.10;99.90;;;;;;5122457;28;20038;-65
2022/06/10 02:45:49;;;;;;;7.63;6.93;;;20.20;99.90;;;;;;5134037;28;20095;-66
2022/06/10 02:48:38;;;;;;;5.10;4.57;;;20.20;99.90;;;;;;5134079;28;20015;-66
2022/06/10 02:51:04;;;;;;;7.68;6.70;;;20.20;99.90;;;;;;5134508;28;20098;-65
2022/06/10 02:53:29;;;;;;;4.97;4.47;;;20.10;99.90;;;;;;5115514;28;20496;-65
2022/06/10 02:55:55;;;;;;;5.97;4.97;;;20.20;99.90;;;;;;5134056;28;20044;-65
2022/06/10 03:01:30;;;;;;;5.93;5.38;;;20.20;99.90;;;;;;5134102;28;20528;-65
2022/06/10 03:04:33;;;;;;;8.60;7.78;;;20.20;99.90;;;;;;5115506;28;20388;-66
2022/06/10 03:07:26;;;;;;;5.40;5.00;;;20.30;99.90;;;;;;5133985;28;20015;-65
2022/06/10 03:10:09;;;;;;;6.93;6.40;;;20.20;99.90;;;;;;5133899;28;20043;-67
2022/06/10 03:12:47;;;;;;;10.38;9.43;;;20.20;99.90;;;;;;5134094;28;20016;-67
2022/06/10 03:15:35;;;;;;;6.93;6.28;;;20.30;99.90;;;;;;5115395;28;20024;-67
2022/06/10 03:18:22;;;;;;;12.48;11.23;;;20.20;99.90;;;;;;5133880;28;20419;-66
2022/06/10 03:21:04;;;;;;;6.72;6.13;;;20.20;99.90;;;;;;5133719;28;20019;-68
2022/06/10 03:23:37;;;;;;;15.68;12.38;;;20.10;99.90;;;;;;5134043;28;20027;-66
2022/06/10 03:26:13;;;;;;;8.60;7.80;;;19.90;99.90;;;;;;5133757;28;20131;-66
2022/06/10 03:29:03;;;;;;;9.07;8.27;;;19.80;99.90;;;;;;5137122;27;20028;-65
2022/06/10 03:31:38;;;;;;;7.15;6.55;;;19.90;99.90;;;;;;5119289;27;20057;-65
2022/06/10 03:34:11;;;;;;;7.18;6.57;;;19.90;99.90;;;;;;5137927;27;20015;-66
2022/06/10 03:36:37;;;;;;;;;;;20.00;99.90;;;;;;5137842;27;20011;-65
2022/06/10 03:39:05;;;;;;;8.35;7.53;;;20.00;99.90;;;;;;5137371;27;19907;-67
2022/06/10 03:41:41;;;;;;;7.70;7.03;;;20.10;99.90;;;;;;5137465;27;20015;-65
2022/06/10 03:44:18;;;;;;;7.55;6.93;;;20.00;99.90;;;;;;5118732;27;20027;-65
2022/06/10 03:46:51;;;;;;;5.90;5.40;;;20.00;99.90;;;;;;5137415;27;20428;-65
2022/06/10 03:49:21;;;;;;;8.15;7.45;;;20.10;99.90;;;;;;5119041;27;20031;-66
2022/06/10 03:51:47;;;;;;;9.90;8.98;;;20.10;99.90;;;;;;5119175;27;20106;-67
2022/06/10 03:54:18;;;;;;;7.65;7.05;;;20.10;99.90;;;;;;5137168;27;20027;-67
2022/06/10 03:56:44;;;;;;;6.50;5.93;;;20.00;99.90;;;;;;5136915;27;20058;-67
2022/06/10 03:59:10;;;;;;;9.48;8.55;;;20.10;99.90;;;;;;5137029;27;20055;-65
2022/06/10 04:01:35;;;;;;;7.50;6.80;;;20.10;99.90;;;;;;5118848;27;20058;-67
2022/06/10 04:04:01;;;;;;;9.18;8.32;;;20.10;99.90;;;;;;5136934;27;20024;-66
2022/06/10 04:06:27;;;;;;;8.32;7.57;;;20.20;99.90;;;;;;5136854;27;20084;-66
2022/06/10 04:08:53;;;;;;;9.88;8.90;;;20.20;99.90;;;;;;5137188;27;20390;-67
2022/06/10 04:11:19;;;;;;;8.93;8.13;;;20.20;99.90;;;;;;5118216;27;20114;-65
2022/06/10 04:13:45;;;;;;;9.85;8.95;;;20.10;99.90;;;;;;5118438;27;20048;-66
2022/06/10 04:16:11;;;;;;;8.77;7.88;;;20.10;99.90;;;;;;5136818;27;20432;-67
2022/06/10 04:18:37;;;;;;;10.40;9.40;;;20.10;99.90;;;;;;5136621;27;20098;-66
2022/06/10 04:21:04;;;;;;;7.70;7.10;;;20.10;99.90;;;;;;5136685;27;20099;-65
2022/06/10 04:23:30;;;;;;;7.55;6.88;;;20.20;99.90;;;;;;5136648;27;20075;-66
2022/06/10 04:25:56;;;;;;;8.88;8.00;;;20.20;99.90;;;;;;5117946;27;20110;-66
2022/06/10 04:28:21;;;;;;;12.52;11.10;;;20.20;99.90;;;;;;5118479;27;20106;-65
2022/06/10 04:30:49;;;;;;;10.15;9.13;;;20.20;99.90;;;;;;5136648;27;20019;-65
2022/06/10 04:33:16;;;;;;;10.68;9.18;;;20.10;99.90;;;;;;5136374;27;20051;-66
2022/06/10 04:35:44;;;;;;;10.40;9.40;;;20.10;99.90;;;;;;5118524;27;20043;-65
2022/06/10 04:38:13;;;;;;;10.90;9.90;;;20.10;99.90;;;;;;5135714;27;20020;-66
2022/06/10 04:40:39;;;;;;;12.00;10.73;;;20.20;99.90;;;;;;5135724;27;20479;-66
2022/06/10 04:43:07;;;;;;;9.45;8.52;;;20.20;99.90;;;;;;5117818;27;20035;-65
2022/06/10 04:45:41;;;;;;;10.55;9.50;;;20.10;99.90;;;;;;5136221;27;20102;-66
2022/06/10 04:48:06;;;;;;;;;;;20.10;99.90;;;;;;5136448;27;20024;-66
2022/06/10 04:50:32;;;;;;;11.57;10.38;;;20.10;99.90;;;;;;5136047;27;19907;-66
2022/06/10 04:52:58;;;;;;;9.32;7.75;;;20.10;99.90;;;;;;5136004;27;20022;-66
2022/06/10 04:55:25;;;;;;;9.13;8.25;;;20.10;99.90;;;;;;5116863;27;20526;-63
2022/06/10 04:57:53;;;;;;;7.60;6.93;;;20.10;99.90;;;;;;5124676;27;20375;-63
2022/06/10 05:00:24;;;;;;;8.35;7.55;;;20.10;99.90;;;;;;5123654;27;20385;-63
2022/06/10 05:02:50;;;;;;;7.60;6.90;;;20.10;99.90;;;;;;5124235;27;20031;-64
2022/06/10 05:05:15;;;;;;;8.35;7.45;;;20.20;99.90;;;;;;5120808;27;20034;-64
2022/06/10 05:07:41;;;;;;;8.15;7.35;;;20.20;99.90;;;;;;5121049;27;20042;-64
2022/06/10 05:10:07;;;;;;;7.38;6.78;;;20.20;99.90;;;;;;5135214;27;20127;-64
2022/06/10 05:12:34;;;;;;;7.97;7.10;;;20.20;99.90;;;;;;5125735;27;20033;-63
2022/06/10 05:15:00;;;;;;;9.45;8.55;;;20.30;99.90;;;;;;5114270;28;20046;-63
2022/06/10 05:17:25;;;;;;;9.02;8.13;;;20.30;99.90;;;;;;5114992;28;20055;-63
2022/06/10 05:19:51;;;;;;;10.82;9.80;;;20.30;99.90;;;;;;5114463;27;20045;-64
2022/06/10 05:22:17;;;;;;;11.13;10.02;;;20.20;99.90;;;;;;5112883;28;20103;-64
2022/06/10 05:24:43;;;;;;;8.02;7.32;;;20.10;99.90;;;;;;5112165;28;20019;-64
2022/06/10 05:27:09;;;;;;;9.70;8.80;;;20.10;99.90;;;;;;5111232;28;20320;-63
2022/06/10 05:29:35;;;;;;;9.35;8.32;;;20.10;99.90;;;;;;5111379;28;20024;-64
2022/06/10 05:32:02;;;;;;;7.72;7.03;;;20.00;99.90;;;;;;5111389;28;20016;-64
2022/06/10 05:34:46;;;;;;;6.97;6.38;;;20.10;99.90;;;;;;5111373;28;20042;-64
2022/06/10 05:37:20;;;;;;;7.82;7.13;;;20.10;99.90;;;;;;5124600;27;20072;-63
2022/06/10 05:39:47;;;;;;;7.97;7.22;;;20.20;99.90;;;;;;5123339;27;20058;-64
2022/06/10 05:42:13;;;;;;;7.75;6.65;;;20.30;99.90;;;;;;5121937;27;20031;-62
2022/06/10 05:44:43;;;;;;;13.63;10.48;;;20.40;99.90;;;;;;5122820;27;20342;-61
2022/06/10 05:47:12;;;;;;;9.43;8.52;;;20.40;99.90;;;;;;5122294;27;20019;-62
2022/06/10 05:49:41;;;;;;;8.27;7.47;;;20.40;99.90;;;;;;5120470;27;20052;-63
2022/06/10 05:52:07;;;;;;;8.15;7.45;;;20.40;99.90;;;;;;5126401;27;20499;-62
2022/06/10 05:54:39;;;;;;;9.38;8.57;;;20.50;99.90;;;;;;5132214;27;20050;-62
2022/06/10 05:57:05;;;;;;;9.70;8.82;;;20.50;99.90;;;;;;5132497;27;20054;-62
2022/06/10 05:59:33;;;;;;;8.48;7.68;;;20.50;99.90;;;;;;5132267;27;20023;-65
2022/06/10 06:02:03;;;;;;;9.65;8.85;;;20.40;99.90;;;;;;5132005;27;20023;-64
2022/06/10 06:04:29;;;;;;;8.80;8.00;;;20.40;99.90;;;;;;5132429;27;20072;-64
2022/06/10 06:06:55;;;;;;;9.75;8.85;;;20.40;99.90;;;;;;5127064;27;20031;-64
2022/06/10 06:09:22;;;;;;;8.13;7.43;;;20.40;99.90;;;;;;5123279;27;20055;-64
2022/06/10 06:11:50;;;;;;;9.80;8.90;;;20.40;99.90;;;;;;5131834;27;20055;-63
2022/06/10 06:14:17;;;;;;;9.05;8.25;;;20.40;99.90;;;;;;5131022;27;20022;-64
2022/06/10 06:16:52;;;;;;;7.80;7.10;;;20.50;99.90;;;;;;5125941;27;20019;-64
2022/06/10 06:19:18;;;;;;;7.40;6.70;;;20.60;99.90;;;;;;5131422;27;20354;-64
2022/06/10 06:21:45;;;;;;;6.28;5.78;;;20.70;99.90;;;;;;5131657;27;20023;-62
2022/06/10 06:24:10;;;;;;;6.38;5.88;;;20.70;99.90;;;;;;5132034;27;20054;-62
2022/06/10 06:26:36;;;;;;;5.95;5.45;;;20.70;99.90;;;;;;5132614;27;20057;-64
2022/06/10 06:29:02;;;;;;;5.03;4.70;;;20.70;99.90;;;;;;5131563;27;20024;-64
2022/06/10 06:31:28;;;;;;;5.03;4.63;;;20.70;99.90;;;;;;5133082;28;20015;-64
2022/06/10 06:33:54;;;;;;;5.05;4.65;;;20.70;99.90;;;;;;5126910;27;20385;-62
2022/06/10 06:36:25;;;;;;;4.82;4.53;;;20.70;99.90;;;;;;5127222;28;20019;-62
2022/06/10 06:38:51;;;;;;;6.32;5.72;;;20.70;99.90;;;;;;5124787;28;20021;-63
2022/06/10 06:41:18;;;;;;;6.95;6.35;;;20.70;99.90;;;;;;5128578;28;20019;-63
2022/06/10 06:43:44;;;;;;;8.48;7.68;;;20.80;99.90;;;;;;5132140;28;20058;-63
2022/06/10 06:46:12;;;;;;;9.77;8.88;;;20.90;99.90;;;;;;5132012;28;20072;-62
2022/06/10 06:48:38;;;;;;;8.95;8.05;;;20.90;99.90;;;;;;5113676;28;20015;-62
2022/06/10 06:51:04;;;;;;;9.57;8.68;;;20.90;99.90;;;;;;5132501;28;20034;-62
2022/06/10 06:53:29;;;;;;;9.52;8.63;;;20.90;99.90;;;;;;5132012;28;20030;-62
2022/06/10 06:55:56;;;;;;;10.15;9.25;;;20.90;99.90;;;;;;5130919;28;20038;-63
2022/06/10 06:58:22;;;;;;;11.43;10.32;;;20.90;99.90;;;;;;5117605;28;20031;-63
2022/06/10 07:00:48;;;;;;;15.30;13.68;;;20.90;99.90;;;;;;5111705;28;20036;-63
2022/06/10 07:03:14;;;;;;;10.50;9.60;;;20.80;99.90;;;;;;5115063;28;20531;-63
2022/06/10 07:05:42;;;;;;;12.82;11.63;;;20.80;99.90;;;;;;5127749;27;20023;-63
2022/06/10 07:08:08;;;;;;;10.20;9.20;;;20.90;99.90;;;;;;5118272;27;20023;-62
2022/06/10 07:10:34;;;;;;;14.98;13.52;;;20.80;99.90;;;;;;5116942;28;20038;-63
2022/06/10 07:13:00;;;;;;;13.07;11.73;;;20.80;99.90;;;;;;5121444;27;20489;-63
2022/06/10 07:15:27;;;;;;;12.13;10.95;;;20.90;99.90;;;;;;5130602;27;20102;-63
2022/06/10 07:17:52;;;;;;;12.63;11.45;;;21.00;99.90;;;;;;5115214;28;20024;-63
2022/06/10 07:20:23;;;;;;;9.85;8.93;;;21.10;99.90;;;;;;5113603;28;20099;-63
2022/06/10 07:22:49;;;;;;;8.75;7.95;;;21.30;99.90;;;;;;5114782;28;20038;-63
2022/06/10 07:25:15;;;;;;;8.63;7.82;;;21.40;99.90;;;;;;5130472;27;20028;-63
2022/06/10 07:27:45;;;;;;;8.13;7.43;;;21.60;99.90;;;;;;5127872;27;20027;-63
2022/06/10 07:30:16;;;;;;;8.93;8.13;;;21.70;99.90;;;;;;5115167;28;20024;-63
2022/06/10 07:32:46;;;;;;;9.77;8.98;;;21.80;99.90;;;;;;5097181;28;20016;-63
2022/06/10 07:35:13;;;;;;;10.45;9.45;;;21.80;99.90;;;;;;5115481;27;20092;-63
2022/06/10 07:37:39;;;;;;;11.80;10.75;;;21.90;99.90;;;;;;5116549;27;20027;-63
2022/06/10 07:43:27;;;;;;;9.98;9.13;;;21.90;99.90;;;;;;5112959;27;20034;-63
2022/06/10 07:45:53;;;;;;;12.77;11.68;;;21.90;99.90;;;;;;5123577;27;20229;-63
2022/06/10 07:48:19;;;;;;;11.82;10.93;;;21.90;99.90;;;;;;5125822;27;20345;-63
2022/06/10 07:50:46;;;;;;;11.48;10.52;;;21.80;99.90;;;;;;5115103;27;20032;-64
2022/06/10 07:53:13;;;;;;;13.02;11.93;;;21.90;99.90;;;;;;5123007;27;20020;-66
2022/06/10 07:55:40;;;;;;;11.88;10.98;;;21.80;99.90;;;;;;5128344;27;20051;-64
2022/06/10 07:58:07;;;;;;;11.95;10.95;;;21.90;99.90;;;;;;5126283;27;20612;-66
2022/06/10 08:00:34;;;;;;;15.23;13.80;;;22.20;99.90;;;;;;5122786;27;20482;-65
2022/06/10 08:03:01;;;;;;;11.55;10.65;;;22.40;99.90;;;;;;5109688;27;20027;-64
2022/06/10 08:05:27;;;;;;;9.65;8.93;;;22.80;99.90;;;;;;5126709;27;20039;-67
2022/06/10 08:07:52;;;;;;;9.60;8.90;;;23.30;99.90;;;;;;5114382;27;20020;-63
2022/06/10 08:10:27;;;;;;;11.60;10.63;;;24.00;99.90;;;;;;5130089;27;20031;-67
2022/06/10 08:12:54;;;;;;;11.68;10.70;;;24.20;99.90;;;;;;5118395;27;20051;-71
2022/06/10 08:15:22;;;;;;;10.52;9.63;;;24.60;99.90;;;;;;5133935;27;20015;-66
2022/06/10 08:17:49;;;;;;;11.65;10.75;;;24.50;99.90;;;;;;5131657;27;20430;-64
2022/06/10 08:22:32;;;;;;;11.23;10.30;;;24.70;99.90;;;;;;5125631;27;20027;-70
2022/06/10 08:23:36;;;;;;;10.95;10.05;;;25.30;99.90;;;;;;5120232;27;20034;-64
2022/06/10 08:26:05;;;;;;;9.48;8.73;;;26.70;99.90;;;;;;5096902;28;20114;-70
2022/06/10 08:28:31;;;;;;;9.88;9.07;;;27.60;99.90;;;;;;5112462;27;20424;-67
2022/06/10 08:30:57;;;;;;;9.93;9.15;;;26.90;99.90;;;;;;5131130;27;20051;-65
2022/06/10 08:33:23;;;;;;;8.95;8.35;;;26.40;99.90;;;;;;5118007;27;20070;-63
2022/06/10 08:35:49;;;;;;;9.70;8.98;;;25.90;99.90;;;;;;5133161;27;20096;-66
2022/06/10 08:38:21;;;;;;;11.25;10.35;;;26.50;99.90;;;;;;5131932;27;20030;-66
2022/06/10 08:41:12;;;;;;;9.53;8.70;;;26.20;99.90;;;;;;5094266;27;20024;-65
2022/06/10 08:43:55;;;;;;;8.75;8.15;;;26.60;99.90;;;;;;5112870;28;20012;-63
2022/06/10 08:46:50;;;;;;;9.00;8.30;;;26.30;99.90;;;;;;5118357;27;20035;-66
2022/06/10 08:49:42;;;;;;;9.30;8.60;;;26.00;99.90;;;;;;5125746;27;20023;-64
2022/06/10 08:52:21;;;;;;;10.00;9.10;;;26.00;99.90;;;;;;5130397;27;20019;-65
2022/06/10 08:55:19;;;;;;;8.65;7.95;;;26.20;99.90;;;;;;5118060;27;20375;-63
2022/06/10 08:57:46;;;;;;;8.43;7.70;;;26.20;99.90;;;;;;5127581;27;20620;-62
2022/06/10 09:00:18;;;;;;;8.02;7.43;;;26.90;99.90;;;;;;5127084;27;20020;-62
2022/06/10 09:02:54;;;;;;;7.73;7.03;;;27.60;99.90;;;;;;5121284;27;20039;-65
2022/06/10 09:05:30;;;;;;;7.28;6.68;;;28.20;99.90;;;;;;5129162;27;21002;-61
2022/06/10 09:08:11;;;;;;;7.07;6.47;;;28.30;99.90;;;;;;5127901;27;20508;-64
2022/06/10 09:10:49;;;;;;;6.82;6.43;;;28.60;99.90;;;;;;5130194;27;20015;-63
2022/06/10 09:13:34;;;;;;;7.15;6.45;;;28.60;99.90;;;;;;5132047;27;20369;-66
2022/06/10 09:15:59;;;;;;;7.28;6.68;;;28.70;99.90;;;;;;5132448;27;20464;-65
2022/06/10 09:18:45;;;;;;;6.75;6.25;;;29.20;99.90;;;;;;5132582;27;20050;-67
2022/06/10 09:21:16;;;;;;;6.88;6.18;;;29.10;99.90;;;;;;5094540;28;20665;-68
2022/06/10 09:23:45;;;;;;;6.28;5.78;;;28.90;99.90;;;;;;5113210;28;20366;-67
2022/06/10 09:26:38;;;;;;;6.30;5.72;;;28.50;99.90;;;;;;5117106;27;20058;-67
2022/06/10 09:29:04;;;;;;;5.15;4.70;;;28.00;99.90;;;;;;5112118;28;20059;-62
2022/06/10 09:31:44;;;;;;;5.80;5.30;;;27.60;99.90;;;;;;5113570;28;20063;-63
2022/06/10 09:34:33;;;;;;;5.75;5.35;;;27.80;99.90;;;;;;5114145;27;20440;-64
2022/06/10 09:37:14;;;;;;;5.72;5.35;;;28.10;99.90;;;;;;5100340;28;20157;-67
2022/06/10 09:43:01;;;;;;;5.65;5.35;;;29.20;99.90;;;;;;5121590;27;20054;-65
2022/06/10 09:46:24;;;;;;;6.97;6.47;;;28.90;99.80;;;;;;5127628;27;20080;-64
2022/06/10 09:49:12;;;;;;;6.37;5.77;;;28.40;99.90;;;;;;5014762;28;20096;-67
2022/06/10 09:52:04;;;;;;;6.03;5.63;;;28.00;99.90;;;;;;5047532;28;20020;-66
2022/06/10 09:54:48;;;;;;;6.53;6.03;;;27.80;99.90;;;;;;5098742;28;20419;-68
2022/06/10 09:57:51;;;;;;;7.30;6.82;;;27.70;99.90;;;;;;5090881;28;20382;-66
2022/06/10 10:00:24;;;;;;;6.82;6.25;;;27.50;99.90;;;;;;5109132;28;20019;-68
2022/06/10 10:03:09;;;;;;;8.20;7.60;;;27.30;99.90;;;;;;5110218;28;20036;-64
2022/06/10 10:05:53;;;;;;;9.23;8.43;;;27.30;99.90;;;;;;5110205;28;20378;-67
2022/06/10 10:08:38;;;;;;;8.30;7.50;;;27.20;99.90;;;;;;5128392;27;20026;-66
2022/06/10 10:11:16;;;;;;;7.13;6.63;;;27.10;99.90;;;;;;5122125;27;20482;-69
2022/06/10 10:14:14;;;;;;;7.35;6.75;;;26.80;99.90;;;;;;5118575;27;20081;-68
2022/06/10 10:16:57;;;;;;;7.45;6.90;;;26.70;99.90;;;;;;5112202;28;20089;-67
2022/06/10 10:19:34;;;;;;;8.68;7.88;;;26.50;99.90;;;;;;5109613;28;20024;-68
2022/06/10 10:22:00;;;;;;;7.30;6.70;;;26.40;99.90;;;;;;5110647;28;20023;-68
2022/06/10 10:24:26;;;;;;;8.07;7.50;;;26.40;99.90;;;;;;5109827;28;20054;-65
2022/06/10 10:26:53;;;;;;;6.10;5.70;;;26.60;99.90;;;;;;5110195;28;20107;-70
2022/06/10 10:29:24;;;;;;;6.93;6.35;;;26.90;99.90;;;;;;5109508;28;20478;-69
2022/06/10 10:32:13;;;;;;;7.50;7.00;;;27.50;99.90;;;;;;5108921;28;20028;-71
2022/06/10 10:34:42;;;;;;;5.82;5.43;;;28.10;99.90;;;;;;5109556;28;20023;-65
2022/06/10 10:37:30;;;;;;;5.45;5.15;;;28.10;99.90;;;;;;5108398;28;20028;-66
2022/06/10 10:40:01;;;;;;;6.55;6.15;;;28.10;99.90;;;;;;5111083;28;20023;-67
2022/06/10 10:42:49;;;;;;;7.35;6.75;;;27.60;99.90;;;;;;5111229;28;20015;-65
2022/06/10 10:45:15;;;;;;;7.05;6.45;;;27.30;99.90;;;;;;5111761;28;20052;-66
2022/06/10 10:47:50;;;;;;;8.02;7.22;;;26.70;99.90;;;;;;5112012;28;20415;-72
2022/06/10 10:50:29;;;;;;;6.93;6.43;;;26.30;99.90;;;;;;5127331;27;20051;-65
2022/06/10 10:52:55;;;;;;;7.30;6.70;;;25.80;99.90;;;;;;5143121;27;20496;-64
2022/06/10 10:55:33;;;;;;;6.22;5.72;;;25.60;99.90;;;;;;5129388;27;20481;-67
2022/06/10 10:58:27;;;;;;;7.80;7.22;;;25.40;99.90;;;;;;5123196;28;20044;-66
2022/06/10 11:01:56;;;;;;;6.80;6.30;;;25.20;99.90;;;;;;5116907;27;20476;-65
2022/06/10 11:04:02;;;;;;;5.43;5.03;;;24.90;99.90;;;;;;5130408;27;20418;-73
2022/06/10 11:06:33;;;;;;;5.88;5.47;;;24.80;99.90;;;;;;5144171;27;20061;-65
2022/06/10 11:09:04;;;;;;;5.13;4.72;;;24.80;99.90;;;;;;5155002;27;20026;-71
2022/06/10 11:11:36;;;;;;;7.43;6.70;;;24.80;99.90;;;;;;5109650;28;20019;-68
2022/06/10 11:14:16;;;;;;;7.68;6.97;;;24.60;99.90;;;;;;5107473;28;20027;-66
2022/06/10 11:16:54;;;;;;;5.70;5.30;;;24.40;99.90;;;;;;5132147;28;20019;-73
2022/06/10 11:19:40;;;;;;;7.47;6.90;;;24.10;99.90;;;;;;5121107;27;20024;-70
2022/06/10 11:22:10;;;;;;;7.38;6.75;;;23.90;99.90;;;;;;5120643;28;20110;-67
2022/06/10 11:24:41;;;;;;;7.70;7.10;;;23.60;99.90;;;;;;5129874;28;20031;-69
2022/06/10 11:27:37;;;;;;;7.63;6.97;;;23.50;99.90;;;;;;5122307;27;20028;-65
2022/06/10 11:30:07;;;;;;;10.68;9.68;;;23.40;99.90;;;;;;5126382;27;20078;-70
2022/06/10 11:32:48;;;;;;;8.93;8.23;;;23.40;99.90;;;;;;5152365;27;20016;-67
2022/06/10 11:35:22;;;;;;;7.80;7.20;;;23.30;99.90;;;;;;5126878;27;20155;-72
2022/06/10 11:37:52;;;;;;;8.23;7.53;;;23.30;99.90;;;;;;5115245;28;20035;-69
2022/06/10 11:40:28;;;;;;;8.35;7.63;;;23.40;99.90;;;;;;5111677;27;20384;-74
2022/06/10 11:42:58;;;;;;;7.20;6.60;;;23.50;99.90;;;;;;5118182;28;20031;-71
2022/06/10 11:45:30;;;;;;;9.15;8.45;;;23.60;99.90;;;;;;5122308;28;20015;-74
2022/06/10 11:48:16;;;;;;;10.68;9.68;;;23.60;99.90;;;;;;5118218;27;20044;-70
2022/06/10 11:51:00;;;;;;;11.20;10.30;;;23.50;99.90;;;;;;5129660;27;20027;-70
2022/06/10 11:53:57;;;;;;;6.80;6.30;;;23.40;99.90;;;;;;5121901;27;20027;-76
2022/06/10 12:00:08;;;;;;;9.00;8.20;;;23.50;99.90;;;;;;5136994;27;20454;-68
2022/06/10 12:02:54;;;;;;;10.13;9.23;;;23.60;99.90;;;;;;5130609;27;20089;-72
2022/06/10 12:05:43;;;;;;;10.43;9.52;;;23.60;99.90;;;;;;5094831;27;20046;-74
2022/06/10 12:08:42;;;;;;;9.52;8.73;;;23.30;99.90;;;;;;5124559;27;20070;-71
2022/06/10 12:11:26;;;;;;;10.95;9.95;;;23.30;99.90;;;;;;5127925;27;20026;-73
2022/06/10 12:14:07;;;;;;;33.25;15.20;;;23.00;99.90;;;;;;5113766;28;20034;-68
2022/06/10 12:16:33;;;;;;;14.13;12.45;;;21.90;99.90;;;;;;5114387;27;20449;-70
2022/06/10 12:19:06;;;;;;;20.10;17.83;;;21.40;99.90;;;;;;5097073;28;20115;-68
2022/06/10 12:21:32;;;;;;;17.95;16.25;;;21.30;99.90;;;;;;5113870;28;20019;-71
2022/06/10 12:23:58;;;;;;;22.08;19.98;;;20.90;99.90;;;;;;5103995;27;20379;-67
2022/06/10 12:26:36;;;;;;;18.15;16.48;;;20.60;99.90;;;;;;5116371;27;20023;-70
2022/06/10 12:29:07;;;;;;;15.90;14.57;;;20.50;99.90;;;;;;5133580;27;20522;-73
2022/06/10 12:31:42;;;;;;;16.30;14.95;;;20.80;99.90;;;;;;5134845;27;20069;-71
2022/06/10 12:34:26;;;;;;;19.55;17.67;;;20.70;99.90;;;;;;5135037;27;20015;-72
2022/06/10 12:37:05;;;;;;;18.63;17.05;;;20.80;99.90;;;;;;5133851;27;20465;-77
2022/06/10 12:40:05;;;;;;;19.05;17.40;;;20.50;99.90;;;;;;5115861;27;20045;-75
2022/06/10 12:42:47;;;;;;;17.15;15.50;;;20.50;99.90;;;;;;5132767;27;20035;-67
2022/06/10 12:45:32;;;;;;;15.50;14.15;;;21.00;99.90;;;;;;5133644;27;20022;-68
2022/06/10 12:48:01;;;;;;;13.80;12.77;;;21.60;99.90;;;;;;5134666;27;20027;-69
2022/06/10 12:50:35;;;;;;;14.85;13.65;;;21.90;99.90;;;;;;5116707;27;20484;-64
2022/06/10 12:53:40;;;;;;;13.00;12.00;;;22.20;99.90;;;;;;5134984;27;20522;-69
2022/06/10 12:56:17;;;;;;;12.55;11.55;;;22.50;99.90;;;;;;5135437;27;20038;-72
2022/06/10 12:59:20;;;;;;;12.98;11.90;;;22.70;99.90;;;;;;5136588;27;20027;-67
2022/06/10 13:01:47;;;;;;;12.35;11.38;;;22.80;99.90;;;;;;5136311;27;20481;-67
2022/06/10 13:04:25;;;;;;;12.40;11.48;;;22.90;99.90;;;;;;5118185;27;20027;-72
2022/06/10 13:06:57;;;;;;;10.55;9.65;;;22.80;99.90;;;;;;5136329;27;20023;-72
2022/06/10 13:09:35;;;;;;;10.93;10.02;;;22.70;99.90;;;;;;5117441;27;20023;-76
2022/06/10 13:12:20;;;;;;;8.90;8.20;;;22.40;99.90;;;;;;5118030;27;20031;-74
2022/06/10 13:15:11;;;;;;;8.70;8.00;;;22.20;99.90;;;;;;5121775;27;20035;-67
2022/06/10 13:17:52;;;;;;;8.88;8.07;;;22.10;99.90;;;;;;5135964;27;20031;-75
2022/06/10 13:20:19;;;;;;;7.30;6.70;;;22.20;99.90;;;;;;5136165;27;20051;-68
2022/06/10 13:23:08;;;;;;;6.78;6.20;;;22.10;99.90;;;;;;5135776;27;20027;-75
2022/06/10 13:25:34;;;;;;;6.53;6.00;;;22.00;99.90;;;;;;5117827;27;20030;-68
2022/06/10 13:28:00;;;;;;;7.05;6.45;;;21.80;99.90;;;;;;5135908;27;20023;-63
2022/06/10 13:30:33;;;;;;;7.20;6.60;;;21.70;99.90;;;;;;5136205;27;20035;-68